Time;durP1;ratioP1;P1;durP2;ratioP2;P2;SDS_P1;SDS_P2;PMS_P1;PMS_P2;Temp;Humidity;BMP_temperature;BMP_pressure;BME280_temperature;BME280_humidity;BME280_pressure;Samples;Min_cycle;Max_cycle;Signal;HPM_P1;HPM_P2
2023/01/12 00:01:07;;;;;;;54.33;22.97;;;;;;;2.79;100.00;99715.53;4211850;28;20255;-68
2023/01/12 00:03:34;;;;;;;53.93;22.17;;;;;;;2.79;100.00;99715.53;4214706;28;20275;-67
2023/01/12 00:06:06;;;;;;;47.83;21.40;;;;;;;2.68;100.00;99718.13;4210213;28;20278;-69
2023/01/12 00:08:33;;;;;;;59.37;25.07;;;;;;;2.77;100.00;99720.06;4218794;28;20303;-69
2023/01/12 00:11:01;;;;;;;51.07;22.20;;;;;;;2.74;100.00;99717.69;4210953;28;21390;-68
2023/01/12 00:13:28;;;;;;;47.30;21.23;;;;;;;2.74;100.00;99718.50;4217326;28;20230;-69
2023/01/12 00:18:45;;;;;;;52.80;22.20;;;;;;;2.78;100.00;99723.53;4214433;28;20976;-68
2023/01/12 00:21:13;;;;;;;48.37;22.20;;;;;;;2.72;100.00;99722.19;4203270;28;20243;-70
2023/01/12 00:23:41;;;;;;;53.40;23.40;;;;;;;2.74;100.00;99728.19;4228439;28;20838;-68
2023/01/12 00:26:08;;;;;;;46.77;20.63;;;;;;;2.73;100.00;99726.50;4215383;28;20224;-66
2023/01/12 00:28:35;;;;;;;57.10;22.70;;;;;;;2.75;100.00;99729.84;4215732;28;20691;-68
2023/01/12 00:31:06;;;;;;;51.53;21.10;;;;;;;2.82;100.00;99725.81;4214379;28;20820;-66
2023/01/12 00:33:37;;;;;;;51.97;21.43;;;;;;;2.84;100.00;99721.28;4209874;28;20619;-67
2023/01/12 00:36:09;;;;;;;53.03;21.57;;;;;;;2.79;100.00;99731.31;4200787;28;20220;-66
2023/01/12 00:38:37;;;;;;;52.30;22.87;;;;;;;2.84;100.00;99729.19;4226440;28;20307;-67
2023/01/12 00:41:08;;;;;;;48.30;22.23;;;;;;;2.99;100.00;99731.63;4221855;28;20236;-67
2023/01/12 00:46:30;;;;;;;51.93;22.73;;;;;;;2.98;100.00;99732.59;4209365;28;20427;-67
2023/01/12 00:48:57;;;;;;;50.57;20.87;;;;;;;3.00;100.00;99734.13;4213750;28;20273;-67
2023/01/12 00:51:24;;;;;;;54.40;22.07;;;;;;;3.08;100.00;99741.44;4216555;28;20294;-68
2023/01/12 00:53:50;;;;;;;50.60;22.13;;;;;;;3.13;100.00;99742.78;4212238;28;20240;-67
2023/01/12 00:56:17;;;;;;;49.07;21.80;;;;;;;3.11;100.00;99741.22;4219736;28;22528;-67
2023/01/12 00:58:45;;;;;;;50.63;21.73;;;;;;;3.08;100.00;99741.44;4222606;28;20297;-67
2023/01/12 01:01:12;;;;;;;50.10;21.20;;;;;;;3.11;100.00;99734.19;4204252;28;20301;-67
2023/01/12 01:03:39;;;;;;;49.03;21.77;;;;;;;3.15;100.00;99737.41;4214849;28;20235;-66
2023/01/12 01:06:06;;;;;;;53.83;21.70;;;;;;;3.25;100.00;99745.44;4205665;28;20763;-67
2023/01/12 01:08:36;;;;;;;52.37;22.27;;;;;;;3.16;100.00;99737.31;4205911;28;20246;-67
2023/01/12 01:11:05;;;;;;;50.47;21.17;;;;;;;3.25;100.00;99741.00;4225070;28;21611;-67
2023/01/12 01:13:32;;;;;;;45.47;21.53;;;;;;;3.18;100.00;99737.16;4215930;28;20502;-66
2023/01/12 01:16:00;;;;;;;48.90;21.73;;;;;;;3.12;100.00;99730.59;4220340;28;20864;-67
2023/01/12 01:18:27;;;;;;;47.03;21.17;;;;;;;3.13;100.00;99732.25;4223488;28;21227;-67
2023/01/12 01:20:54;;;;;;;49.27;22.90;;;;;;;3.21;100.00;99736.09;4207918;28;20291;-67
2023/01/12 01:23:22;;;;;;;53.87;21.90;;;;;;;3.26;100.00;99737.44;4211902;28;22374;-68
2023/01/12 01:25:48;;;;;;;48.17;21.33;;;;;;;3.31;100.00;99732.69;4218873;28;20232;-70
2023/01/12 01:28:16;;;;;;;40.80;20.07;;;;;;;3.25;100.00;99741.00;4236058;28;21708;-66
2023/01/12 01:30:43;;;;;;;49.00;21.97;;;;;;;3.34;100.00;99728.97;4224308;28;20234;-69
2023/01/12 01:33:10;;;;;;;56.70;23.63;;;;;;;3.27;100.00;99728.59;4220252;28;21391;-68
2023/01/12 01:35:37;;;;;;;47.00;21.93;;;;;;;3.30;100.00;99720.50;4217379;28;20270;-65
2023/01/12 01:38:04;;;;;;;52.53;22.03;;;;;;;3.30;100.00;99725.75;4207355;28;20774;-66
2023/01/12 01:40:31;;;;;;;53.80;21.60;;;;;;;3.24;100.00;99728.00;4215249;28;22795;-66
2023/01/12 01:42:58;;;;;;;50.23;21.83;;;;;;;3.38;100.00;99730.41;4204370;28;20241;-66
2023/01/12 01:45:25;;;;;;;50.03;21.27;;;;;;;3.35;100.00;99730.66;4220190;28;20227;-68
2023/01/12 01:47:54;;;;;;;47.20;21.40;;;;;;;3.34;100.00;99729.81;4214368;28;25577;-65
2023/01/12 01:50:29;;;;;;;52.33;22.53;;;;;;;3.34;100.00;99732.44;4214068;28;21886;-66
2023/01/12 01:52:59;;;;;;;45.60;21.53;;;;;;;3.33;100.00;99728.13;4208147;28;20231;-67
2023/01/12 01:55:32;;;;;;;50.20;21.77;;;;;;;3.41;100.00;99730.19;4208493;28;21203;-66
2023/01/12 01:58:08;;;;;;;47.83;21.40;;;;;;;3.43;100.00;99725.66;4208062;28;22117;-68
2023/01/12 02:00:37;;;;;;;46.57;22.20;;;;;;;3.53;100.00;99731.03;4211573;28;20405;-66
2023/01/12 02:03:05;;;;;;;48.10;21.13;;;;;;;3.46;100.00;99735.91;4215530;28;20743;-65
2023/01/12 02:05:32;;;;;;;48.13;22.57;;;;;;;3.40;100.00;99736.41;4213144;28;20235;-66
2023/01/12 02:08:04;;;;;;;49.80;22.23;;;;;;;3.47;100.00;99740.25;4218927;28;20397;-67
2023/01/12 02:10:30;;;;;;;50.23;22.27;;;;;;;3.51;100.00;99739.06;4216132;28;20430;-68
2023/01/12 02:16:24;;;;;;;47.03;21.27;;;;;;;3.47;100.00;99734.16;4231573;28;20236;-68
2023/01/12 02:19:03;;;;;;;51.23;21.90;;;;;;;3.57;100.00;99743.00;4192578;28;20673;-68
2023/01/12 02:21:45;;;;;;;50.17;21.60;;;;;;;3.47;100.00;99739.41;4216278;28;21678;-67
2023/01/12 02:24:37;;;;;;;49.20;21.57;;;;;;;3.56;100.00;99741.34;4221533;28;20237;-68
2023/01/12 02:27:20;;;;;;;53.07;23.13;;;;;;;3.64;100.00;99748.63;4232668;28;20234;-69
2023/01/12 02:30:12;;;;;;;52.80;23.60;;;;;;;3.64;100.00;99749.47;4201511;28;20237;-66
2023/01/12 02:32:47;;;;;;;51.33;22.63;;;;;;;3.64;100.00;99749.47;4225400;28;21847;-70
2023/01/12 02:35:35;;;;;;;48.70;22.30;;;;;;;3.74;100.00;99749.59;4239276;28;20227;-69
2023/01/12 02:38:13;;;;;;;60.27;23.67;;;;;;;3.68;100.00;99745.66;4206174;28;21126;-67
2023/01/12 02:40:50;;;;;;;50.27;22.57;;;;;;;3.85;100.00;99740.88;4209482;28;20253;-68
2023/01/12 02:43:24;;;;;;;50.00;22.37;;;;;;;3.76;100.00;99753.78;4211527;28;20270;-66
2023/01/12 02:46:13;;;;;;;49.47;23.17;;;;;;;3.77;100.00;99752.84;4204864;28;21591;-70
2023/01/12 02:48:43;;;;;;;45.63;22.00;;;;;;;3.76;100.00;99748.53;4232218;28;22011;-67
2023/01/12 02:51:33;;;;;;;47.87;22.03;;;;;;;3.86;100.00;99758.34;4237165;28;20217;-66
2023/01/12 02:54:11;;;;;;;49.67;22.43;;;;;;;3.95;100.00;99757.63;4217144;28;20447;-66
2023/01/12 02:56:42;;;;;;;44.97;21.97;;;;;;;3.88;100.00;99767.78;4214024;28;20296;-66
2023/01/12 02:59:15;;;;;;;52.60;23.50;;;;;;;3.91;100.00;99774.59;4218760;28;20258;-68
2023/01/12 03:01:43;;;;;;;53.63;24.80;;;;;;;3.92;100.00;99768.41;4232526;28;25422;-72
2023/01/12 03:04:10;;;;;;;52.47;23.83;;;;;;;3.93;100.00;99764.81;4207959;28;21999;-66
2023/01/12 03:06:44;;;;;;;52.53;24.50;;;;;;;3.94;100.00;99769.13;4225006;28;20229;-68
2023/01/12 03:09:13;;;;;;;46.73;22.90;;;;;;;3.88;100.00;99767.78;4214517;28;20243;-66
2023/01/12 03:11:42;;;;;;;51.10;23.90;;;;;;;3.89;100.00;99769.47;4213803;28;20278;-69
2023/01/12 03:14:09;;;;;;;49.47;22.90;;;;;;;3.98;100.00;99768.78;4215394;28;20302;-67
2023/01/12 03:16:38;;;;;;;49.53;21.33;;;;;;;4.09;100.00;99775.81;4213774;28;20244;-69
2023/01/12 03:19:08;;;;;;;51.37;23.00;;;;;;;4.00;100.00;99782.66;4210054;28;22534;-70
2023/01/12 03:21:38;;;;;;;47.47;22.77;;;;;;;4.07;100.00;99800.59;4213864;28;20302;-68
2023/01/12 03:24:13;;;;;;;43.50;21.20;;;;;;;4.15;100.00;99790.31;4221376;28;20345;-66
2023/01/12 03:26:47;;;;;;;45.70;21.23;;;;;;;4.01;100.00;99788.75;4224482;28;20705;-70
2023/01/12 03:29:27;;;;;;;51.73;23.63;;;;;;;4.04;100.00;99792.94;4218166;28;20244;-68
2023/01/12 03:31:54;;;;;;;46.20;23.03;;;;;;;4.06;100.00;99786.59;4209413;28;20451;-67
2023/01/12 03:34:21;;;;;;;50.63;22.17;;;;;;;4.13;100.00;99800.94;4212765;28;21086;-66
2023/01/12 03:37:06;;;;;;;44.10;21.87;;;;;;;4.10;100.00;99788.03;4215879;28;20232;-66
2023/01/12 03:39:45;;;;;;;46.33;22.00;;;;;;;4.19;100.00;99787.31;4217958;28;20235;-68
2023/01/12 03:42:30;;;;;;;45.30;21.40;;;;;;;4.11;100.00;99789.69;4209819;28;20238;-66
2023/01/12 03:45:14;;;;;;;47.23;21.10;;;;;;;4.14;100.00;99793.88;4220061;28;20242;-68
2023/01/12 03:47:42;;;;;;;44.03;21.73;;;;;;;4.22;100.00;99794.97;4217485;28;20438;-68
2023/01/12 03:50:15;;;;;;;46.23;22.27;;;;;;;4.10;100.00;99790.66;4214821;28;20324;-67
2023/01/12 03:52:43;;;;;;;46.77;22.13;;;;;;;4.17;100.00;99788.41;4217000;28;20232;-67
2023/01/12 03:55:16;;;;;;;58.73;21.83;;;;;;;4.15;100.00;99785.88;4213821;28;20407;-66
2023/01/12 03:57:43;;;;;;;48.23;21.30;;;;;;;4.15;100.00;99777.97;4220085;28;22251;-68
2023/01/12 04:00:11;;;;;;;48.30;21.27;;;;;;;4.17;100.00;99783.13;4213051;28;25544;-68
2023/01/12 04:02:38;;;;;;;52.67;22.43;;;;;;;4.16;100.00;99769.09;4206475;28;20571;-66
2023/01/12 04:05:07;;;;;;;45.67;22.33;;;;;;;4.25;100.00;99775.44;4217403;28;20318;-69
2023/01/12 04:07:33;;;;;;;52.07;22.80;;;;;;;4.31;100.00;99779.38;4213393;28;20239;-67
2023/01/12 04:10:00;;;;;;;56.07;23.30;;;;;;;4.36;100.00;99780.72;4218459;28;25579;-67
2023/01/12 04:12:26;;;;;;;53.97;22.63;;;;;;;4.36;100.00;99787.78;4216278;28;20293;-67
2023/01/12 04:14:53;;;;;;;52.90;24.07;;;;;;;4.37;100.00;99800.00;4231367;28;20283;-68
2023/01/12 04:17:23;;;;;;;53.63;23.00;;;;;;;4.38;100.00;99799.88;4217252;28;20454;-68
2023/01/12 04:19:51;;;;;;;49.87;23.77;;;;;;;4.45;100.00;99792.34;4217202;28;21210;-67
2023/01/12 04:25:04;;;;;;;57.90;22.57;;;;;;;4.53;100.00;99804.88;4209294;28;20259;-67
2023/01/12 04:27:30;;;;;;;51.07;23.27;;;;;;;4.49;100.00;99809.53;4216744;28;21782;-68
2023/01/12 04:29:57;;;;;;;51.97;23.00;;;;;;;4.46;100.00;99804.53;4212997;28;20315;-68
2023/01/12 04:32:24;;;;;;;52.03;23.03;;;;;;;4.57;100.00;99811.59;4222888;28;22566;-65
2023/01/12 04:34:50;;;;;;;54.80;23.50;;;;;;;4.55;100.00;99819.63;4233928;28;20263;-66
2023/01/12 04:37:17;;;;;;;57.60;24.13;;;;;;;4.54;100.00;99817.94;4230599;28;20236;-66
2023/01/12 04:39:44;;;;;;;60.90;24.73;;;;;;;4.58;100.00;99819.38;4208998;28;20240;-66
2023/01/12 04:42:59;;;;;;;55.87;23.63;;;;;;;4.60;100.00;99814.81;4226564;28;20311;-68
2023/01/12 04:44:57;;;;;;;56.63;25.33;;;;;;;4.58;100.00;99818.53;4227176;28;20230;-66
2023/01/12 04:47:24;;;;;;;53.73;23.97;;;;;;;4.62;100.00;99820.81;4207063;28;20398;-67
2023/01/12 04:49:50;;;;;;;56.33;24.60;;;;;;;4.62;100.00;99818.16;4222002;28;20239;-68
2023/01/12 04:52:17;;;;;;;51.43;23.60;;;;;;;4.60;100.00;99817.44;4224395;28;20228;-68
2023/01/12 04:54:44;;;;;;;54.70;23.80;;;;;;;4.54;100.00;99811.81;4216783;28;20233;-67
2023/01/12 04:57:11;;;;;;;54.13;24.40;;;;;;;4.54;100.00;99815.31;4227296;28;20420;-66
2023/01/12 04:59:37;;;;;;;56.03;24.97;;;;;;;4.59;100.00;99815.78;4225349;28;20291;-68
2023/01/12 05:02:04;;;;;;;60.37;24.77;;;;;;;4.63;100.00;99817.19;4220278;28;20418;-67
2023/01/12 05:04:31;;;;;;;58.60;25.43;;;;;;;4.64;100.00;99816.25;4216302;28;20232;-68
2023/01/12 05:06:58;;;;;;;50.10;22.73;;;;;;;4.70;100.00;99822.81;4205053;28;20227;-66
2023/01/12 05:12:09;;;;;;;53.60;23.03;;;;;;;4.76;100.00;99821.50;4214288;28;22793;-69
2023/01/12 05:14:36;;;;;;;59.07;24.20;;;;;;;4.68;100.00;99816.00;4219787;28;21393;-66
2023/01/12 05:17:03;;;;;;;52.43;23.97;;;;;;;4.71;100.00;99813.13;4224373;28;20242;-66
2023/01/12 05:19:30;;;;;;;58.77;24.70;;;;;;;4.76;100.00;99818.88;4196164;28;20232;-67
2023/01/12 05:21:57;;;;;;;52.77;24.20;;;;;;;4.74;100.00;99818.16;4217158;28;21910;-67
2023/01/12 05:24:23;;;;;;;52.43;23.40;;;;;;;4.77;100.00;99825.81;4231018;28;21166;-66
2023/01/12 05:26:50;;;;;;;55.63;25.73;;;;;;;4.74;100.00;99812.88;4230952;28;20735;-67
2023/01/12 05:29:16;;;;;;;50.67;23.17;;;;;;;4.80;100.00;99812.38;4226025;28;23992;-69
2023/01/12 05:31:43;;;;;;;53.03;24.17;;;;;;;4.82;100.00;99813.94;4212491;28;20250;-67
2023/01/12 05:34:10;;;;;;;51.97;23.33;;;;;;;4.81;100.00;99814.06;4221106;28;20309;-66
2023/01/12 05:36:36;;;;;;;55.03;24.50;;;;;;;4.81;100.00;99816.69;4212358;28;21380;-66
2023/01/12 05:39:03;;;;;;;56.90;25.47;;;;;;;4.82;100.00;99821.00;4214573;28;25565;-67
2023/01/12 05:41:30;;;;;;;53.90;24.20;;;;;;;4.94;100.00;99825.31;4216328;28;20640;-66
2023/01/12 05:43:56;;;;;;;52.90;23.73;;;;;;;4.86;100.00;99822.44;4211055;28;22766;-65
2023/01/12 05:46:28;;;;;;;49.27;24.10;;;;;;;4.86;100.00;99838.25;4230550;28;20299;-66
2023/01/12 05:48:56;;;;;;;52.27;24.20;;;;;;;4.89;100.00;99827.44;4217307;28;22539;-66
2023/01/12 05:51:25;;;;;;;52.97;24.70;;;;;;;4.90;100.00;99829.13;4217901;28;21773;-67
2023/01/12 05:53:51;;;;;;;52.50;24.23;;;;;;;4.92;100.00;99829.03;4212943;28;21000;-66
2023/01/12 05:56:27;;;;;;;49.30;23.87;;;;;;;4.91;100.00;99829.97;4226437;28;20302;-68
2023/01/12 05:58:58;;;;;;;51.87;23.57;;;;;;;4.85;100.00;99839.22;4196320;28;20392;-67
2023/01/12 06:01:25;;;;;;;53.13;23.40;;;;;;;4.91;100.00;99836.06;4214850;28;20330;-68
2023/01/12 06:03:57;;;;;;;55.53;24.33;;;;;;;4.88;100.00;99846.88;4228508;28;20245;-68
2023/01/12 06:06:26;;;;;;;53.60;24.33;;;;;;;4.92;100.00;99850.13;4216372;28;20232;-68
2023/01/12 06:08:53;;;;;;;54.40;24.17;;;;;;;4.96;100.00;99841.81;4217436;28;20951;-65
2023/01/12 06:14:06;;;;;;;57.20;24.70;;;;;;;4.97;100.00;99835.59;4215941;28;20243;-68
2023/01/12 06:16:35;;;;;;;60.03;25.00;;;;;;;5.06;100.00;99834.00;4225163;28;21617;-69
2023/01/12 06:19:02;;;;;;;60.20;25.70;;;;;;;5.01;100.00;99844.94;4209162;28;20370;-69
2023/01/12 06:21:31;;;;;;;56.93;25.10;;;;;;;5.03;100.00;99845.66;4221090;28;20236;-67
2023/01/12 06:23:58;;;;;;;64.97;26.53;;;;;;;5.00;100.00;99839.78;4212974;28;20236;-68
2023/01/12 06:26:24;;;;;;;66.60;26.03;;;;;;;5.02;100.00;99849.22;4232771;28;21373;-67
2023/01/12 06:28:51;;;;;;;59.37;25.23;;;;;;;5.08;100.00;99846.13;4222728;28;20318;-67
2023/01/12 06:31:18;;;;;;;59.70;23.73;;;;;;;5.17;100.00;99841.88;4228573;28;21130;-69
2023/01/12 06:33:47;;;;;;;54.50;23.97;;;;;;;5.06;100.00;99849.84;4217847;28;20891;-68
2023/01/12 06:36:14;;;;;;;61.77;26.67;;;;;;;5.15;100.00;99851.72;4223746;28;20248;-67
2023/01/12 06:38:42;;;;;;;66.00;27.40;;;;;;;5.13;100.00;99856.28;4222718;28;20265;-68
2023/01/12 06:43:56;;;;;;;60.13;26.37;;;;;;;5.22;100.00;99855.53;4224274;28;20248;-69
2023/01/12 06:46:24;;;;;;;58.77;25.67;;;;;;;5.23;100.00;99864.28;4227830;28;20234;-68
2023/01/12 06:48:54;;;;;;;63.13;25.33;;;;;;;5.30;100.00;99860.19;4190264;28;20243;-69
2023/01/12 06:51:21;;;;;;;58.93;23.97;;;;;;;5.29;100.00;99855.84;4219304;28;21369;-69
2023/01/12 06:53:47;;;;;;;61.90;25.53;;;;;;;5.28;100.00;99856.84;4209969;28;25832;-66
2023/01/12 06:56:14;;;;;;;64.40;25.53;;;;;;;5.34;100.00;99858.13;4226784;28;20240;-65
2023/01/12 06:58:44;;;;;;;59.73;25.93;;;;;;;5.34;100.00;99853.69;4219739;28;20234;-69
2023/01/12 07:01:12;;;;;;;57.43;25.03;;;;;;;5.35;100.00;99857.16;4219176;28;20236;-69
2023/01/12 07:03:39;;;;;;;56.60;25.33;;;;;;;5.33;100.00;99857.28;4232259;28;20235;-67
2023/01/12 07:06:06;;;;;;;57.63;24.43;;;;;;;5.37;100.00;99871.91;4219338;28;20297;-67
2023/01/12 07:08:32;;;;;;;61.30;25.37;;;;;;;5.38;100.00;99878.84;4239240;28;21562;-69
2023/01/12 07:11:11;;;;;;;58.23;25.43;;;;;;;5.40;100.00;99879.56;4227085;28;20552;-70
2023/01/12 07:13:38;;;;;;;58.40;23.60;;;;;;;5.39;100.00;99877.91;4238236;28;23227;-67
2023/01/12 07:16:05;;;;;;;52.97;22.47;;;;;;;5.43;100.00;99884.63;4237807;28;20245;-67
2023/01/12 07:18:32;;;;;;;56.37;24.53;;;;;;;5.40;100.00;99887.47;4205135;28;20241;-68
2023/01/12 07:21:04;;;;;;;61.03;24.37;;;;;;;5.45;100.00;99887.09;4291188;28;20223;-69
2023/01/12 07:23:31;;;;;;;52.67;23.93;;;;;;;5.41;100.00;99891.81;4233145;28;21337;-68
2023/01/12 07:25:57;;;;;;;58.20;24.33;;;;;;;5.45;100.00;99897.66;4225618;28;20356;-64
2023/01/12 07:28:24;;;;;;;52.10;23.53;;;;;;;5.44;100.00;99891.56;4218945;28;20250;-68
2023/01/12 07:30:51;;;;;;;53.90;23.53;;;;;;;5.50;100.00;99898.13;4226337;28;21774;-66
2023/01/12 07:33:19;;;;;;;58.40;23.53;;;;;;;5.49;100.00;99894.66;4227384;28;21229;-65
2023/01/12 07:35:46;;;;;;;54.87;24.03;;;;;;;5.52;100.00;99908.56;4223763;28;20232;-68
2023/01/12 07:38:13;;;;;;;55.47;23.80;;;;;;;5.50;100.00;99906.03;4211695;28;21176;-65
2023/01/12 07:40:39;;;;;;;54.63;24.10;;;;;;;5.56;100.00;99910.81;4237631;28;20224;-66
2023/01/12 07:43:07;;;;;;;53.03;22.63;;;;;;;5.63;100.00;99912.00;4236668;28;20314;-66
2023/01/12 07:45:34;;;;;;;58.60;24.17;;;;;;;5.59;100.00;99912.38;4237374;28;20235;-68
2023/01/12 07:48:01;;;;;;;49.83;23.30;;;;;;;5.64;100.00;99912.81;4223850;28;20248;-65
2023/01/12 07:50:28;;;;;;;51.90;23.57;;;;;;;5.64;100.00;99913.69;4276664;28;20227;-68
2023/01/12 07:52:59;;;;;;;54.03;23.13;;;;;;;5.68;100.00;99915.09;4194285;28;20229;-68
2023/01/12 07:55:25;;;;;;;48.70;22.47;;;;;;;5.64;100.00;99908.41;4230553;28;20289;-65
2023/01/12 07:57:54;;;;;;;53.63;23.13;;;;;;;5.64;100.00;99912.81;4244124;28;20261;-68
2023/01/12 08:00:23;;;;;;;49.90;22.40;;;;;;;5.66;100.00;99921.47;4225449;28;21991;-66
2023/01/12 08:02:54;;;;;;;54.67;23.43;;;;;;;5.67;100.00;99923.16;4245584;28;20451;-63
2023/01/12 08:05:21;;;;;;;48.37;22.43;;;;;;;5.59;100.00;99926.41;4237217;28;20244;-65
2023/01/12 08:07:48;;;;;;;45.07;21.60;;;;;;;5.61;100.00;99927.13;4218023;28;21629;-69
2023/01/12 08:10:15;;;;;;;46.47;21.67;;;;;;;5.65;100.00;99922.44;4216454;28;20232;-69
2023/01/12 08:12:42;;;;;;;48.40;21.33;;;;;;;5.69;100.00;99934.44;4232819;28;20242;-69
2023/01/12 08:15:09;;;;;;;43.20;21.23;;;;;;;5.72;100.00;99934.16;4220974;28;20499;-65
2023/01/12 08:17:41;;;;;;;48.20;21.90;;;;;;;5.69;100.00;99937.91;4218564;28;20435;-69
2023/01/12 08:20:12;;;;;;;47.00;21.10;;;;;;;5.70;100.00;99936.09;4230253;28;22901;-69
2023/01/12 08:22:42;;;;;;;50.03;21.63;;;;;;;5.73;100.00;99935.81;4222984;28;20252;-68
2023/01/12 08:25:12;;;;;;;46.57;20.90;;;;;;;5.70;100.00;99933.44;4225620;28;20281;-68
2023/01/12 08:27:42;;;;;;;47.93;20.87;;;;;;;5.69;100.00;99931.78;4230395;28;20242;-66
2023/01/12 08:30:09;;;;;;;47.70;21.30;;;;;;;5.77;100.00;99929.34;4220559;28;20236;-66
2023/01/12 08:32:36;;;;;;;44.23;19.80;;;;;;;5.76;100.00;99934.72;4227458;28;21895;-70
2023/01/12 08:35:03;;;;;;;48.90;21.17;;;;;;;5.76;100.00;99932.09;4224864;28;20235;-70
2023/01/12 08:37:30;;;;;;;42.70;19.27;;;;;;;5.82;100.00;99931.59;4221539;28;21739;-69
2023/01/12 08:39:57;;;;;;;53.77;21.27;;;;;;;6.00;100.00;99932.75;4215914;28;20730;-66
2023/01/12 08:42:26;;;;;;;37.93;18.77;;;;;;;6.15;100.00;99938.53;4236744;28;21050;-64
2023/01/12 08:44:55;;;;;;;43.27;19.43;;;;;;;6.59;100.00;99931.28;4216737;28;20623;-66
2023/01/12 08:47:27;;;;;;;36.83;17.87;;;;;;;7.93;100.00;99937.97;4229588;28;20866;-63
2023/01/12 08:49:54;;;;;;;31.47;16.37;;;;;;;9.76;98.99;99945.34;4224517;28;20308;-71
2023/01/12 08:52:21;;;;;;;33.60;14.23;;;;;;;12.01;85.05;99955.88;4254311;28;22710;-65
2023/01/12 08:54:48;;;;;;;24.93;12.80;;;;;;;13.22;76.21;99972.81;4236495;28;21928;-70
2023/01/12 08:57:15;;;;;;;25.23;11.67;;;;;;;13.69;71.38;99974.59;4236098;28;20235;-67
2023/01/12 08:59:42;;;;;;;27.30;12.83;;;;;;;13.65;67.66;99978.63;4251279;28;22999;-70
2023/01/12 09:02:12;;;;;;;24.73;12.87;;;;;;;13.50;68.48;99974.03;4243986;28;20613;-66
2023/01/12 09:04:40;;;;;;;23.07;11.87;;;;;;;14.05;65.42;99979.38;4242261;28;20344;-68
2023/01/12 09:07:08;;;;;;;29.57;14.87;;;;;;;13.47;66.94;99978.91;4239546;28;20224;-69
2023/01/12 09:09:35;;;;;;;24.00;12.87;;;;;;;13.81;65.89;99975.84;4256865;28;20247;-66
2023/01/12 09:12:02;;;;;;;26.43;12.60;;;;;;;15.46;58.14;99975.94;4234393;28;22317;-71
2023/01/12 09:14:29;;;;;;;24.03;11.60;;;;;;;15.04;58.95;99972.09;4241129;28;20240;-65
2023/01/12 09:16:55;;;;;;;24.67;11.43;;;;;;;13.76;63.50;99964.03;4237844;28;20507;-67
2023/01/12 09:19:22;;;;;;;28.57;11.17;;;;;;;12.72;67.52;99953.44;4233814;28;20739;-69
2023/01/12 09:21:49;;;;;;;24.50;11.20;;;;;;;11.61;72.23;99940.59;4232473;28;20414;-67
2023/01/12 09:24:16;;;;;;;25.37;11.27;;;;;;;10.81;77.99;99941.00;4243327;28;20639;-64
2023/01/12 09:26:44;;;;;;;25.90;11.20;;;;;;;10.26;82.00;99920.84;4217515;28;20250;-70
2023/01/12 09:29:11;;;;;;;19.73;11.07;;;;;;;12.03;78.17;99932.53;4221740;28;20232;-68
2023/01/12 09:31:41;;;;;;;21.73;10.90;;;;;;;14.13;65.02;99947.19;4255414;28;20593;-65
2023/01/12 09:34:08;;;;;;;24.90;10.47;;;;;;;14.92;61.25;99946.78;4267472;28;20376;-65
2023/01/12 09:36:36;;;;;;;15.87;8.80;;;;;;;16.03;55.17;99956.31;4236032;28;20739;-65
2023/01/12 09:39:03;;;;;;;19.17;9.50;;;;;;;15.57;56.00;99947.81;4205332;28;21478;-64
2023/01/12 09:47:48;;;;;;;22.27;9.40;;;;;;;16.73;50.80;99951.09;4234439;28;20332;-66
2023/01/12 09:50:23;;;;;;;20.33;8.93;;;;;;;17.50;47.13;99941.16;4228356;28;21687;-67
2023/01/12 09:52:57;;;;;;;18.47;7.47;;;;;;;17.67;45.76;99950.50;4233976;28;20223;-72
2023/01/12 09:55:25;;;;;;;16.23;7.70;;;;;;;17.81;45.33;99947.88;4244519;28;21968;-64
2023/01/12 09:57:57;;;;;;;15.43;7.93;;;;;;;17.04;46.57;99936.41;4206989;28;20235;-66
2023/01/12 10:00:24;;;;;;;22.60;8.33;;;;;;;15.57;51.28;99921.81;4222332;28;20312;-64
2023/01/12 10:03:09;;;;;;;16.70;8.47;;;;;;;15.06;54.66;99902.25;4231852;28;22185;-65
2023/01/12 10:05:46;;;;;;;17.07;7.73;;;;;;;14.67;55.22;99912.22;4241095;28;20231;-66
2023/01/12 10:08:22;;;;;;;18.73;8.23;;;;;;;14.44;56.16;99895.38;4218573;28;23180;-63
2023/01/12 10:11:10;;;;;;;16.03;7.37;;;;;;;13.45;60.50;99887.38;4246397;28;22085;-66
2023/01/12 10:14:02;;;;;;;23.70;7.73;;;;;;;13.69;61.16;99887.19;4237184;28;20622;-65
2023/01/12 10:16:53;;;;;;;16.00;7.30;;;;;;;14.20;58.41;99891.13;4240422;28;26486;-63
2023/01/12 10:19:26;;;;;;;19.70;7.27;;;;;;;14.53;57.60;99899.63;4245221;28;20424;-64
2023/01/12 10:21:54;;;;;;;17.40;7.63;;;;;;;14.62;56.59;99895.91;4223773;28;20235;-63
2023/01/12 10:24:23;;;;;;;18.77;6.83;;;;;;;13.97;58.44;99889.31;4219310;28;20298;-68
2023/01/12 10:26:57;;;;;;;16.80;7.33;;;;;;;14.25;56.96;99892.22;4225808;28;20710;-67
2023/01/12 10:29:24;;;;;;;14.57;5.13;;;;;;;13.70;57.25;99888.03;4232240;28;21878;-64
2023/01/12 10:31:50;;;;;;;16.23;6.07;;;;;;;14.00;57.24;99890.78;4232718;28;20243;-64
2023/01/12 10:34:17;;;;;;;16.47;6.10;;;;;;;13.77;59.46;99872.13;4224367;28;20244;-39
2023/01/12 10:36:48;;;;;;;18.43;6.13;;;;;;;13.19;61.03;99874.31;4254859;28;20278;-65
2023/01/12 10:39:27;;;;;;;15.80;5.57;;;;;;;13.50;58.49;99883.13;4228333;28;20349;-69
2023/01/12 10:45:16;;;;;;;17.80;5.70;;;;;;;12.92;61.04;99860.41;4263524;28;20230;-67
2023/01/12 10:47:45;;;;;;;17.97;6.13;;;;;;;13.48;59.08;99869.13;4255621;28;21804;-63
2023/01/12 10:50:30;;;;;;;15.73;5.37;;;;;;;12.74;60.82;99854.50;4225623;28;21417;-74
2023/01/12 10:53:08;;;;;;;12.67;5.07;;;;;;;13.28;59.58;99857.25;4256607;28;20554;-65
2023/01/12 10:55:38;;;;;;;11.07;4.80;;;;;;;13.61;57.62;99854.34;4238437;28;24869;-66
2023/01/12 10:58:19;;;;;;;13.90;4.93;;;;;;;13.70;57.07;99853.28;4258584;28;20228;-66
2023/01/12 11:00:47;;;;;;;14.17;4.70;;;;;;;14.11;55.76;99848.38;4225706;28;20240;-65
2023/01/12 11:03:30;;;;;;;14.43;4.93;;;;;;;14.75;54.03;99855.91;4233872;28;20315;-67
2023/01/12 11:06:24;;;;;;;17.67;5.30;;;;;;;15.37;50.66;99861.78;4241736;28;20239;-64
2023/01/12 11:08:51;;;;;;;16.30;4.90;;;;;;;15.63;50.87;99859.34;4244015;28;20288;-69
2023/01/12 11:11:31;;;;;;;24.10;5.33;;;;;;;16.14;47.97;99860.22;4235132;28;21199;-63
2023/01/12 11:14:00;;;;;;;17.10;5.00;;;;;;;14.74;51.96;99848.88;4213745;28;21389;-66
2023/01/12 11:16:32;;;;;;;17.17;6.27;;;;;;;13.16;58.62;99834.56;4221628;28;20346;-66
2023/01/12 11:19:17;;;;;;;17.63;6.90;;;;;;;11.23;69.38;99816.84;4232825;28;22319;-66
2023/01/12 11:21:55;;;;;;;15.73;7.07;;;;;;;10.26;75.79;99803.84;4217237;28;20533;-42
2023/01/12 11:24:36;;;;;;;16.77;7.10;;;;;;;9.66;79.17;99796.66;4245819;28;20657;-65
2023/01/12 11:27:16;;;;;;;15.97;6.70;;;;;;;9.28;83.03;99804.00;4249842;28;20235;-67
2023/01/12 11:29:55;;;;;;;20.23;7.67;;;;;;;9.16;85.41;99796.41;4243633;28;21242;-65
2023/01/12 11:33:07;;;;;;;20.17;8.47;;;;;;;9.10;85.84;99795.19;4269035;28;21203;-68
2023/01/12 11:35:43;;;;;;;19.03;8.00;;;;;;;9.16;86.66;99783.97;4160296;29;26261;-62
2023/01/12 11:38:12;;;;;;;22.20;8.43;;;;;;;9.03;87.51;99783.50;4133378;29;21281;-62
2023/01/12 11:40:40;;;;;;;24.50;9.43;;;;;;;8.64;89.65;99784.63;4187458;28;20259;-62
2023/01/12 11:46:34;;;;;;;20.53;9.80;;;;;;;8.69;89.92;99770.91;4232554;28;22020;-59
2023/01/12 11:49:09;;;;;;;21.93;9.17;;;;;;;8.71;89.39;99768.94;4212099;28;20987;-59
2023/01/12 11:51:36;;;;;;;20.10;8.27;;;;;;;8.63;90.10;99779.44;4219582;28;21586;-65
2023/01/12 11:54:05;;;;;;;15.50;8.00;;;;;;;8.54;90.81;99761.78;4250812;28;20400;-60
2023/01/12 11:57:15;;;;;;;25.97;8.57;;;;;;;8.54;91.73;99767.06;4214036;28;20247;-66
2023/01/12 12:00:22;;;;;;;21.13;8.83;;;;;;;8.48;91.37;99767.69;4211906;28;20223;-65
2023/01/12 12:03:15;;;;;;;24.27;8.87;;;;;;;8.25;92.33;99774.16;4240174;28;20239;-66
2023/01/12 12:05:42;;;;;;;21.03;9.20;;;;;;;8.13;93.27;99774.50;4182719;28;20340;-63
2023/01/12 12:08:41;;;;;;;16.03;8.00;;;;;;;8.12;93.88;99763.06;4231736;28;20451;-64